YM Initiative — A8HX4 — position and weather

sailwx.info

Track history (hours):
 
Tides and Currents Weather Stations Pressure Air Temp Water Temp Dewpoint Dewpoint Depression Visibility Wind Speed Wind Dir Waves Ship Positions

YM Initiative

Last reported at 2015-Jan-26 06:15 UTC. Time now 2015-Jan-29 04:20 UTC.
Position N 01°16' E 104°14'.

Length 173 m; draft 7.7 m.

Type: Cargo ship. MMSI: 635961368.

Date/timePositionNaut miles runAvg speedWind from/ knotsBaromVisibWave heightAir tempDewpointWater temp
2015-Jan-26 06:15N 01°16' E 104°14'1115.8
2015-Jan-26 05:33N 01°14' E 104°03'1515.2
2015-Jan-26 04:33N 01°10' E 103°48'7614.4
2015-Jan-25 23:17N 01°42' E 102°39'1215.9
2015-Jan-25 22:30N 01°48' E 102°28'4715.8
2015-Jan-25 19:33N 02°15' E 101°50'34 1.1
2015-Jan-24 12:27N 01°56' E 102°19'1011.0
2015-Jan-24 11:32N 01°52' E 102°28'2411.8
2015-Jan-24 09:32N 01°42' E 102°50'59 9.9
2015-Jan-24 03:32N 01°14' E 103°42'5 4.8
2015-Jan-24 02:24N 01°17' E 103°46'0 0.0
2015-Jan-24 01:30N 01°17' E 103°46'0 0.0
2015-Jan-24 00:33N 01°17' E 103°46'0 0.0
2015-Jan-23 22:15N 01°17' E 103°46'0 0.0
2015-Jan-23 21:33N 01°17' E 103°46'0 0.0
2015-Jan-23 20:30N 01°17' E 103°46'0 0.0
2015-Jan-23 19:33N 01°17' E 103°46'0 0.0
2015-Jan-23 18:30N 01°17' E 103°46'0 0.0
2015-Jan-23 17:33N 01°17' E 103°46'0 0.0
2015-Jan-23 16:33N 01°17' E 103°46'0 0.0
2015-Jan-23 15:30N 01°17' E 103°46'0 0.0
2015-Jan-23 14:33N 01°17' E 103°46'0 0.0
2015-Jan-23 13:33N 01°17' E 103°46'0 0.0
2015-Jan-23 12:33N 01°17' E 103°46'1 1.2
2015-Jan-23 11:33N 01°16' E 103°45'8 7.2
2015-Jan-23 10:29N 01°13' E 103°52'5 5.7
2015-Jan-23 09:33N 01°15' E 103°57'1211.5
2015-Jan-23 08:31N 01°17' E 104°09'  
2015-Jan-17 12:08N 01°15' E 104°05'813.7
2015-Jan-17 11:33N 01°14' E 103°57'10 9.5
2015-Jan-17 10:33N 01°13' E 103°48'4 3.9
2015-Jan-17 09:30N 01°16' E 103°46'0 0.0
2015-Jan-17 08:12N 01°16' E 103°46'0 0.0
2015-Jan-17 07:30N 01°16' E 103°46'0 0.0
2015-Jan-17 06:24N 01°16' E 103°46'0 0.0
2015-Jan-17 05:33N 01°16' E 103°46'0 0.0
2015-Jan-17 04:33N 01°16' E 103°46'0 0.0
2015-Jan-17 03:33N 01°16' E 103°46'0 0.0
2015-Jan-17 02:33N 01°16' E 103°46'0 0.0
2015-Jan-17 01:24N 01°16' E 103°46'0 0.0
2015-Jan-17 00:30N 01°16' E 103°46'0 0.0
2015-Jan-16 23:33N 01°16' E 103°46'0 0.0
2015-Jan-16 22:21N 01°16' E 103°46'0 0.0
2015-Jan-16 21:33N 01°16' E 103°46'0 0.0
2015-Jan-16 20:27N 01°16' E 103°46'0 0.0
2015-Jan-16 19:33N 01°16' E 103°46'0 0.0
2015-Jan-16 17:27N 01°16' E 103°46'0 0.0
2015-Jan-16 16:27N 01°16' E 103°46'0 0.0
2015-Jan-16 15:21N 01°16' E 103°46'0 0.0
2015-Jan-16 14:09N 01°16' E 103°46'0 0.1
2015-Jan-16 13:33N 01°16' E 103°46'7 7.1
2015-Jan-16 12:33N 01°13' E 103°52'4 4.4
2015-Jan-16 11:33N 01°14' E 103°56'7 6.6
2015-Jan-16 10:33N 01°16' E 104°03'1212.4
2015-Jan-16 09:33N 01°17' E 104°15'  
Track history (hours):
 
Tides and Currents Weather Stations Pressure Air Temp Water Temp Dewpoint Dewpoint Depression Visibility Wind Speed Wind Dir Waves Ship Positions

YM Initiative

Last reported at 2015-Jan-26 06:15 UTC. Time now 2015-Jan-29 04:20 UTC.
Position N 01°16' E 104°14'.

Length 173 m; draft 7.7 m.

Type: Cargo ship. MMSI: 635961368.

Date/timePositionNaut miles runAvg speedWind from/ knotsBaromVisibWave heightAir tempDewpointWater temp
2015-Jan-26 06:15N 01°16' E 104°14'1115.8
2015-Jan-26 05:33N 01°14' E 104°03'1515.2
2015-Jan-26 04:33N 01°10' E 103°48'7614.4
2015-Jan-25 23:17N 01°42' E 102°39'1215.9
2015-Jan-25 22:30N 01°48' E 102°28'4715.8
2015-Jan-25 19:33N 02°15' E 101°50'34 1.1
2015-Jan-24 12:27N 01°56' E 102°19'1011.0
2015-Jan-24 11:32N 01°52' E 102°28'2411.8
2015-Jan-24 09:32N 01°42' E 102°50'59 9.9
2015-Jan-24 03:32N 01°14' E 103°42'5 4.8
2015-Jan-24 02:24N 01°17' E 103°46'0 0.0
2015-Jan-24 01:30N 01°17' E 103°46'0 0.0
2015-Jan-24 00:33N 01°17' E 103°46'0 0.0
2015-Jan-23 22:15N 01°17' E 103°46'0 0.0
2015-Jan-23 21:33N 01°17' E 103°46'0 0.0
2015-Jan-23 20:30N 01°17' E 103°46'0 0.0
2015-Jan-23 19:33N 01°17' E 103°46'0 0.0
2015-Jan-23 18:30N 01°17' E 103°46'0 0.0
2015-Jan-23 17:33N 01°17' E 103°46'0 0.0
2015-Jan-23 16:33N 01°17' E 103°46'0 0.0
2015-Jan-23 15:30N 01°17' E 103°46'0 0.0
2015-Jan-23 14:33N 01°17' E 103°46'0 0.0
2015-Jan-23 13:33N 01°17' E 103°46'0 0.0
2015-Jan-23 12:33N 01°17' E 103°46'1 1.2
2015-Jan-23 11:33N 01°16' E 103°45'8 7.2
2015-Jan-23 10:29N 01°13' E 103°52'5 5.7
2015-Jan-23 09:33N 01°15' E 103°57'1211.5
2015-Jan-23 08:31N 01°17' E 104°09'  
2015-Jan-17 12:08N 01°15' E 104°05'813.7
2015-Jan-17 11:33N 01°14' E 103°57'10 9.5
2015-Jan-17 10:33N 01°13' E 103°48'4 3.9
2015-Jan-17 09:30N 01°16' E 103°46'0 0.0
2015-Jan-17 08:12N 01°16' E 103°46'0 0.0
2015-Jan-17 07:30N 01°16' E 103°46'0 0.0
2015-Jan-17 06:24N 01°16' E 103°46'0 0.0
2015-Jan-17 05:33N 01°16' E 103°46'0 0.0
2015-Jan-17 04:33N 01°16' E 103°46'0 0.0
2015-Jan-17 03:33N 01°16' E 103°46'0 0.0
2015-Jan-17 02:33N 01°16' E 103°46'0 0.0
2015-Jan-17 01:24N 01°16' E 103°46'0 0.0
2015-Jan-17 00:30N 01°16' E 103°46'0 0.0
2015-Jan-16 23:33N 01°16' E 103°46'0 0.0
2015-Jan-16 22:21N 01°16' E 103°46'0 0.0
2015-Jan-16 21:33N 01°16' E 103°46'0 0.0
2015-Jan-16 20:27N 01°16' E 103°46'0 0.0
2015-Jan-16 19:33N 01°16' E 103°46'0 0.0
2015-Jan-16 17:27N 01°16' E 103°46'0 0.0
2015-Jan-16 16:27N 01°16' E 103°46'0 0.0
2015-Jan-16 15:21N 01°16' E 103°46'0 0.0
2015-Jan-16 14:09N 01°16' E 103°46'0 0.1
2015-Jan-16 13:33N 01°16' E 103°46'7 7.1
2015-Jan-16 12:33N 01°13' E 103°52'4 4.4
2015-Jan-16 11:33N 01°14' E 103°56'7 6.6
2015-Jan-16 10:33N 01°16' E 104°03'1212.4
2015-Jan-16 09:33N 01°17' E 104°15'  

Dump ship's entire track history